Time;durP1;ratioP1;P1;durP2;ratioP2;P2;SDS_P1;SDS_P2;PMS_P1;PMS_P2;Temp;Humidity;BMP_temperature;BMP_pressure;BME280_temperature;BME280_humidity;BME280_pressure;Samples;Min_cycle;Max_cycle;Signal;HPM_P1;HPM_P2
2022/07/13 00:00:34;;;;;;;2.10;1.30;;;;;;;17.35;100.00;100958.34;5032486;28;20672;-74
2022/07/13 00:03:00;;;;;;;3.37;1.43;;;;;;;17.32;100.00;100955.81;5011490;28;20183;-76
2022/07/13 00:05:25;;;;;;;3.33;1.60;;;;;;;17.29;100.00;100958.53;5024472;28;20274;-75
2022/07/13 00:07:50;;;;;;;1.77;1.40;;;;;;;17.27;100.00;100947.25;5028609;28;20687;-75
2022/07/13 00:10:16;;;;;;;1.80;1.60;;;;;;;17.24;100.00;100952.56;5010917;28;20214;-75
2022/07/13 00:12:41;;;;;;;1.80;1.70;;;;;;;17.21;100.00;100952.63;5024091;28;20232;-76
2022/07/13 00:15:07;;;;;;;2.47;1.33;;;;;;;17.24;100.00;100949.09;5032414;28;20550;-74
2022/07/13 00:17:32;;;;;;;1.90;1.37;;;;;;;17.23;100.00;100950.00;5010794;28;20303;-74
2022/07/13 00:19:58;;;;;;;1.60;1.30;;;;;;;17.20;100.00;100948.28;5028868;28;21234;-75
2022/07/13 00:22:25;;;;;;;1.67;1.40;;;;;;;17.14;100.00;100944.09;5026279;28;20192;-74
2022/07/13 00:24:50;;;;;;;2.03;1.23;;;;;;;17.11;100.00;100945.94;5008308;28;20330;-75
2022/07/13 00:27:15;;;;;;;1.77;1.40;;;;;;;17.08;100.00;100941.66;5011720;28;20290;-74
2022/07/13 00:29:41;;;;;;;2.90;1.37;;;;;;;17.05;100.00;100942.56;5031440;28;20188;-74
2022/07/13 00:32:06;;;;;;;3.00;1.50;;;;;;;17.03;100.00;100935.66;5031073;28;20309;-75
2022/07/13 00:34:32;;;;;;;1.20;1.10;;;;;;;17.01;100.00;100927.88;5004779;28;20191;-75
2022/07/13 00:36:58;;;;;;;1.43;1.30;;;;;;;16.99;100.00;100932.28;5023190;28;20698;-75
2022/07/13 00:39:23;;;;;;;1.80;1.10;;;;;;;17.01;100.00;100921.75;5028770;28;20184;-74
2022/07/13 00:41:49;;;;;;;1.87;1.30;;;;;;;17.03;100.00;100922.59;5029833;28;20623;-75
2022/07/13 00:44:16;;;;;;;2.07;1.57;;;;;;;17.08;100.00;100930.31;5034954;28;20191;-74
2022/07/13 00:46:47;;;;;;;2.40;1.40;;;;;;;17.13;100.00;100923.22;5027826;28;20570;-75
2022/07/13 00:49:13;;;;;;;1.60;1.40;;;;;;;17.17;100.00;100915.25;5011108;28;20226;-74
2022/07/13 00:51:39;;;;;;;1.60;1.30;;;;;;;17.21;100.00;100913.41;5019499;28;20241;-75
2022/07/13 00:54:05;;;;;;;1.93;1.40;;;;;;;17.25;100.00;100909.81;5024778;28;20179;-75
2022/07/13 00:56:31;;;;;;;2.33;1.43;;;;;;;17.28;100.00;100907.13;5005761;28;20796;-75
2022/07/13 00:58:58;;;;;;;1.47;1.37;;;;;;;17.29;100.00;100908.84;5029114;28;20241;-75
2022/07/13 01:01:23;;;;;;;1.40;1.30;;;;;;;17.30;100.00;100907.94;5022190;28;20221;-75
2022/07/13 01:03:49;;;;;;;1.50;1.37;;;;;;;17.32;100.00;100900.88;5021730;28;20192;-76
2022/07/13 01:06:16;;;;;;;2.60;1.50;;;;;;;17.36;100.00;100905.13;5027621;28;20217;-75
2022/07/13 01:08:42;;;;;;;1.63;1.43;;;;;;;17.37;100.00;100899.00;5019383;28;20211;-76
2022/07/13 01:11:08;;;;;;;1.60;1.50;;;;;;;17.39;100.00;100901.59;5027907;28;20205;-75
2022/07/13 01:13:34;;;;;;;1.47;1.37;;;;;;;17.40;100.00;100900.66;5025854;28;20671;-75
2022/07/13 01:16:00;;;;;;;2.17;1.33;;;;;;;17.42;100.00;100887.56;5023813;28;20236;-75
2022/07/13 01:18:26;;;;;;;1.73;1.20;;;;;;;17.42;100.00;100895.41;5029345;28;20185;-76
2022/07/13 01:20:51;;;;;;;1.60;1.43;;;;;;;17.40;100.00;100886.75;5023876;28;20183;-76
2022/07/13 01:23:18;;;;;;;1.93;1.47;;;;;;;17.39;100.00;100890.25;5006137;28;20276;-74
2022/07/13 01:25:44;;;;;;;1.53;1.30;;;;;;;17.35;100.00;100894.72;5028215;28;20194;-76
2022/07/13 01:28:13;;;;;;;1.23;1.10;;;;;;;17.32;100.00;100900.88;5030998;28;20479;-75
2022/07/13 01:30:39;;;;;;;1.73;1.40;;;;;;;17.30;100.00;100901.84;5026440;28;20190;-76
2022/07/13 01:33:04;;;;;;;2.53;1.50;;;;;;;17.27;100.00;100902.78;5001451;28;20283;-75
2022/07/13 01:35:30;;;;;;;1.67;1.50;;;;;;;17.26;100.00;100887.97;5009176;28;20648;-75
2022/07/13 01:37:55;;;;;;;1.40;1.30;;;;;;;17.26;100.00;100898.44;5012625;28;20242;-77
2022/07/13 01:40:21;;;;;;;1.40;1.30;;;;;;;17.24;100.00;100892.41;5009659;28;20245;-75
2022/07/13 01:42:49;;;;;;;2.60;1.50;;;;;;;17.20;100.00;100895.97;5009227;28;20188;-75
2022/07/13 01:45:16;;;;;;;1.40;1.30;;;;;;;17.16;100.00;100894.38;5008910;28;21028;-75
2022/07/13 01:47:47;;;;;;;5.30;1.37;;;;;;;17.13;100.00;100897.06;5027447;28;20204;-76
2022/07/13 01:50:15;;;;;;;2.13;1.60;;;;;;;17.12;100.00;100890.13;5023041;28;20325;-75
2022/07/13 01:52:41;;;;;;;2.60;1.47;;;;;;;17.10;100.00;100887.53;5010006;28;20211;-75
2022/07/13 01:55:08;;;;;;;2.17;1.40;;;;;;;17.09;100.00;100882.34;5024310;28;20226;-76
2022/07/13 01:57:34;;;;;;;1.53;1.43;;;;;;;17.11;100.00;100881.41;5007455;28;20690;-76
2022/07/13 02:00:01;;;;;;;3.90;1.80;;;;;;;17.14;100.00;100878.69;5002871;28;20224;-76
2022/07/13 02:02:27;;;;;;;1.50;1.40;;;;;;;17.18;100.00;100874.25;5026876;28;20197;-75
2022/07/13 02:04:54;;;;;;;1.30;1.10;;;;;;;17.15;100.00;100872.56;5022449;28;20184;-75
2022/07/13 02:07:20;;;;;;;1.77;1.20;;;;;;;17.08;100.00;100868.44;5020307;28;20196;-75
2022/07/13 02:09:46;;;;;;;1.43;1.30;;;;;;;17.02;100.00;100871.19;5012015;28;20577;-75
2022/07/13 02:12:11;;;;;;;1.30;1.00;;;;;;;17.00;100.00;100860.78;5023725;28;20184;-75
2022/07/13 02:14:36;;;;;;;1.40;1.20;;;;;;;17.00;100.00;100871.25;5024931;28;20188;-75
2022/07/13 02:17:02;;;;;;;1.30;1.20;;;;;;;17.00;100.00;100863.41;5020966;28;20235;-75
2022/07/13 02:19:27;;;;;;;1.20;1.10;;;;;;;16.94;100.00;100863.53;5019724;28;20183;-75
2022/07/13 02:21:52;;;;;;;1.20;1.07;;;;;;;16.84;100.00;100862.91;5018688;28;20211;-76
2022/07/13 02:24:18;;;;;;;2.27;1.20;;;;;;;16.76;100.00;100855.25;5003926;28;20198;-74
2022/07/13 02:26:43;;;;;;;1.50;1.40;;;;;;;16.73;100.00;100857.94;5028878;28;20678;-76
2022/07/13 02:29:08;;;;;;;2.23;1.40;;;;;;;16.70;100.00;100862.38;5017812;28;20182;-74
2022/07/13 02:31:34;;;;;;;1.27;1.17;;;;;;;16.69;100.00;100873.75;5008856;28;20257;-75
2022/07/13 02:34:00;;;;;;;1.63;1.10;;;;;;;16.69;100.00;100865.91;5024634;28;20615;-78
2022/07/13 02:36:26;;;;;;;2.40;1.57;;;;;;;16.69;100.00;100871.13;5020735;28;20220;-75
2022/07/13 02:38:51;;;;;;;1.43;1.33;;;;;;;16.67;100.00;100875.53;5020480;28;20678;-74
2022/07/13 02:41:17;;;;;;;5.07;1.47;;;;;;;16.56;100.00;100881.88;5008077;28;20218;-75
2022/07/13 02:43:42;;;;;;;5.07;1.80;;;;;;;16.45;100.00;100876.06;5027441;28;20182;-76
2022/07/13 02:46:07;;;;;;;3.53;1.53;;;;;;;16.38;100.00;100861.44;5013092;28;20237;-75
2022/07/13 02:48:33;;;;;;;3.10;1.60;;;;;;;16.32;100.00;100865.03;5025330;28;20181;-76
2022/07/13 02:50:59;;;;;;;2.70;1.50;;;;;;;16.27;100.00;100861.66;5022586;28;20180;-77
2022/07/13 02:53:24;;;;;;;1.77;1.57;;;;;;;16.25;100.00;100871.31;5023970;28;20885;-74
2022/07/13 02:55:49;;;;;;;2.20;1.60;;;;;;;16.24;100.00;100869.59;5018312;28;20191;-76
2022/07/13 02:58:15;;;;;;;2.33;1.70;;;;;;;16.22;100.00;100866.16;5002834;28;21753;-78
2022/07/13 03:00:40;;;;;;;2.17;1.63;;;;;;;16.20;100.00;100867.94;5022199;28;20183;-75
2022/07/13 03:03:05;;;;;;;2.33;1.40;;;;;;;16.17;100.00;100862.78;5021863;28;20558;-75
2022/07/13 03:05:31;;;;;;;2.43;1.53;;;;;;;16.14;100.00;100863.72;5012782;28;20599;-77
2022/07/13 03:07:56;;;;;;;2.60;1.60;;;;;;;16.12;100.00;100868.97;5020061;28;20200;-75
2022/07/13 03:10:22;;;;;;;2.93;1.60;;;;;;;16.10;100.00;100867.28;5006527;28;20180;-75
2022/07/13 03:12:47;;;;;;;2.70;1.70;;;;;;;16.06;100.00;100858.69;5007794;28;20188;-78
2022/07/13 03:15:12;;;;;;;4.07;1.73;;;;;;;16.00;100.00;100858.81;5019220;28;20196;-73
2022/07/13 03:17:40;;;;;;;2.63;1.80;;;;;;;15.96;100.00;100865.84;5010258;28;20225;-75
2022/07/13 03:20:07;;;;;;;1.60;1.50;;;;;;;15.92;100.00;100856.38;5022122;28;20192;-76
2022/07/13 03:22:32;;;;;;;1.63;1.53;;;;;;;15.90;100.00;100858.16;5023889;28;20187;-75
2022/07/13 03:24:58;;;;;;;2.40;1.53;;;;;;;15.88;100.00;100849.53;5012372;28;20206;-76
2022/07/13 03:27:23;;;;;;;2.07;1.73;;;;;;;15.84;100.00;100846.06;5010477;28;20210;-75
2022/07/13 03:29:48;;;;;;;2.23;1.70;;;;;;;15.80;100.00;100839.22;5024509;28;20192;-75
2022/07/13 03:32:14;;;;;;;2.93;1.60;;;;;;;15.77;100.00;100835.78;5024379;28;20190;-76
2022/07/13 03:34:40;;;;;;;2.30;1.70;;;;;;;15.75;100.00;100837.56;5005163;28;20250;-76
2022/07/13 03:37:07;;;;;;;2.60;2.00;;;;;;;15.72;100.00;100833.28;5024041;28;20222;-75
2022/07/13 03:39:33;;;;;;;3.20;1.90;;;;;;;15.70;100.00;100828.13;5025350;28;20212;-75
2022/07/13 03:41:58;;;;;;;3.10;2.10;;;;;;;15.68;100.00;100819.47;5020590;28;20249;-75
2022/07/13 03:44:24;;;;;;;4.13;2.03;;;;;;;15.67;100.00;100809.91;5021749;28;20187;-75
2022/07/13 03:46:49;;;;;;;9.27;2.80;;;;;;;15.65;100.00;100803.88;5021454;28;20195;-76
2022/07/13 03:49:14;;;;;;;4.10;2.10;;;;;;;15.64;100.00;100809.97;5023502;28;20545;-75
2022/07/13 03:51:41;;;;;;;2.70;1.80;;;;;;;15.65;100.00;100806.47;5030700;28;20277;-75
2022/07/13 03:54:06;;;;;;;3.23;2.20;;;;;;;15.68;100.00;100808.16;5011678;28;20249;-75
2022/07/13 03:56:32;;;;;;;3.13;2.07;;;;;;;15.72;100.00;100814.19;5009540;28;20717;-75
2022/07/13 03:58:57;;;;;;;3.30;2.20;;;;;;;15.73;100.00;100821.13;5018330;28;20179;-75
2022/07/13 04:01:23;;;;;;;4.03;1.90;;;;;;;15.74;100.00;100814.97;5025527;28;20193;-74
2022/07/13 04:03:48;;;;;;;2.70;1.80;;;;;;;15.76;100.00;100824.50;5021585;28;20213;-75
2022/07/13 04:06:13;;;;;;;1.93;1.57;;;;;;;15.79;100.00;100820.97;5022646;28;20215;-74
2022/07/13 04:08:39;;;;;;;2.13;1.60;;;;;;;15.83;100.00;100820.00;5019486;28;20273;-75
2022/07/13 04:11:04;;;;;;;1.40;1.30;;;;;;;15.88;100.00;100819.94;5028462;28;20957;-75
2022/07/13 04:13:30;;;;;;;1.73;1.53;;;;;;;15.93;100.00;100828.53;5011023;28;20282;-75
2022/07/13 04:15:55;;;;;;;1.77;1.57;;;;;;;15.99;100.00;100829.25;5037402;28;20272;-76
2022/07/13 04:18:22;;;;;;;1.60;1.50;;;;;;;16.08;100.00;100836.00;5030418;28;20186;-77
2022/07/13 04:20:47;;;;;;;2.80;1.53;;;;;;;16.18;100.00;100839.28;5013290;28;20184;-75
2022/07/13 04:23:13;;;;;;;3.10;1.83;;;;;;;16.29;100.00;100845.09;5030547;28;20313;-75
2022/07/13 04:25:38;;;;;;;2.93;1.80;;;;;;;16.46;100.00;100841.22;5004948;28;20232;-75
2022/07/13 04:28:03;;;;;;;1.83;1.73;;;;;;;16.73;100.00;100852.72;5026234;28;20708;-75
2022/07/13 04:30:29;;;;;;;1.70;1.60;;;;;;;17.01;100.00;100859.00;5026777;28;20192;-75
2022/07/13 04:32:54;;;;;;;1.70;1.60;;;;;;;17.31;100.00;100857.34;5010068;28;20198;-75
2022/07/13 04:35:20;;;;;;;6.03;2.27;;;;;;;18.18;100.00;100865.28;5007240;28;20211;-75
2022/07/13 04:37:45;;;;;;;6.23;2.30;;;;;;;19.04;100.00;100855.47;5022800;28;20218;-77
2022/07/13 04:40:11;;;;;;;5.07;1.70;;;;;;;19.74;99.25;100858.19;5030568;28;20189;-75
2022/07/13 04:42:37;;;;;;;3.47;1.83;;;;;;;20.36;97.17;100848.75;5029502;28;20183;-75
2022/07/13 04:45:02;;;;;;;3.87;1.60;;;;;;;20.63;95.43;100848.53;5008675;28;20181;-75
2022/07/13 04:47:28;;;;;;;6.27;1.50;;;;;;;20.98;94.61;100842.72;5027255;28;20269;-74
2022/07/13 04:49:53;;;;;;;2.97;1.50;;;;;;;21.66;92.01;100841.47;5008670;28;20197;-76
2022/07/13 04:52:18;;;;;;;1.83;1.07;;;;;;;21.53;91.68;100828.84;5029059;28;20228;-76
2022/07/13 04:54:44;;;;;;;1.77;1.23;;;;;;;21.11;92.69;100828.09;5009377;28;20190;-74
2022/07/13 04:57:09;;;;;;;1.77;1.30;;;;;;;21.12;92.78;100831.56;5022312;28;21088;-76
2022/07/13 04:59:35;;;;;;;1.30;1.20;;;;;;;21.37;91.93;100822.56;5021842;28;20279;-76
2022/07/13 05:02:00;;;;;;;4.37;1.13;;;;;;;21.21;92.31;100828.53;5017098;28;20202;-73
2022/07/13 05:04:25;;;;;;;2.40;1.13;;;;;;;20.90;92.79;100831.66;5037160;28;20183;-76
2022/07/13 05:06:51;;;;;;;3.97;1.30;;;;;;;20.60;93.07;100829.38;5018862;28;20208;-75
2022/07/13 05:09:16;;;;;;;2.23;1.40;;;;;;;20.36;93.70;100830.34;5027530;28;20195;-76
2022/07/13 05:11:41;;;;;;;3.57;1.43;;;;;;;20.15;93.94;100836.50;5018875;28;20191;-76
2022/07/13 05:14:07;;;;;;;2.70;1.50;;;;;;;19.94;94.08;100828.56;5029027;28;20189;-76
2022/07/13 05:16:32;;;;;;;1.87;1.67;;;;;;;19.85;94.06;100834.16;5046585;28;20240;-75
2022/07/13 05:18:58;;;;;;;2.60;1.50;;;;;;;19.81;94.16;100836.03;5026035;28;20293;-76
2022/07/13 05:21:23;;;;;;;1.30;1.20;;;;;;;19.79;94.12;100836.09;5018602;28;20198;-75
2022/07/13 05:23:48;;;;;;;1.60;1.50;;;;;;;19.82;94.17;100842.13;5026160;28;20197;-76
2022/07/13 05:26:14;;;;;;;1.40;1.30;;;;;;;19.93;93.70;100842.59;5048497;28;20210;-76
2022/07/13 05:28:39;;;;;;;2.37;1.37;;;;;;;20.07;93.67;100839.44;5036383;28;20693;-73
2022/07/13 05:31:05;;;;;;;2.17;1.17;;;;;;;20.25;93.54;100845.72;5019236;28;20195;-74
2022/07/13 05:33:31;;;;;;;1.30;1.20;;;;;;;20.38;93.54;100840.81;5021173;28;20226;-75
2022/07/13 05:35:56;;;;;;;2.10;1.60;;;;;;;20.50;93.26;100848.19;5029388;28;20186;-75
2022/07/13 05:38:22;;;;;;;3.13;1.40;;;;;;;20.58;93.82;100849.63;5008342;28;20302;-73
2022/07/13 05:40:47;;;;;;;3.27;1.27;;;;;;;20.64;93.97;100854.66;5029332;28;20185;-76
2022/07/13 05:43:13;;;;;;;1.70;1.17;;;;;;;20.69;94.17;100840.38;5027523;28;20192;-76
2022/07/13 05:45:39;;;;;;;2.20;1.50;;;;;;;20.75;94.20;100856.81;5008746;28;20184;-76
2022/07/13 05:48:04;;;;;;;3.97;1.30;;;;;;;20.76;94.38;100846.25;5026501;28;20201;-78
2022/07/13 05:50:30;;;;;;;2.43;1.50;;;;;;;20.78;94.73;100848.84;5033849;28;20219;-75
2022/07/13 05:52:55;;;;;;;2.13;1.50;;;;;;;20.79;94.67;100847.94;5006591;28;20184;-75
2022/07/13 05:55:21;;;;;;;1.73;1.30;;;;;;;20.80;94.74;100849.59;5017374;28;20265;-76
2022/07/13 05:57:46;;;;;;;2.20;1.57;;;;;;;20.84;94.53;100848.56;5031438;28;20285;-76
2022/07/13 06:00:13;;;;;;;2.80;1.47;;;;;;;20.92;95.00;100845.59;5016881;28;20218;-76
2022/07/13 06:02:42;;;;;;;1.77;1.57;;;;;;;21.05;94.50;100846.78;5031894;28;20268;-76
2022/07/13 06:05:09;;;;;;;2.27;1.33;;;;;;;21.21;94.17;100846.97;5006015;28;20194;-75
2022/07/13 06:07:35;;;;;;;6.63;1.53;;;;;;;21.31;93.21;100834.25;5027175;28;20297;-75
2022/07/13 06:10:01;;;;;;;3.07;1.67;;;;;;;21.37;92.77;100839.22;5006622;28;20274;-76
2022/07/13 06:12:27;;;;;;;1.57;1.30;;;;;;;21.44;92.36;100845.06;5018973;28;20174;-76
2022/07/13 06:14:53;;;;;;;3.80;1.83;;;;;;;21.56;92.13;100848.91;5017672;28;20181;-74
2022/07/13 06:17:19;;;;;;;2.97;1.80;;;;;;;21.70;91.35;100856.22;5033373;28;20211;-76
2022/07/13 06:19:45;;;;;;;2.93;1.60;;;;;;;21.83;90.90;100859.09;5024474;28;20340;-76
2022/07/13 06:22:10;;;;;;;1.80;1.70;;;;;;;22.01;90.51;100855.59;5033468;28;20259;-76
2022/07/13 06:24:36;;;;;;;2.47;1.60;;;;;;;22.22;90.00;100845.81;5015242;28;20203;-75
2022/07/13 06:27:01;;;;;;;3.20;1.67;;;;;;;22.45;89.38;100842.97;5009080;28;20195;-76
2022/07/13 06:29:27;;;;;;;2.60;1.40;;;;;;;22.66;88.92;100848.97;5027543;28;20266;-76
2022/07/13 06:31:53;;;;;;;3.03;1.80;;;;;;;22.83;88.43;100841.03;5035939;28;20175;-74
2022/07/13 06:34:18;;;;;;;2.60;1.20;;;;;;;23.02;88.00;100840.06;5031261;28;20205;-75
2022/07/13 06:36:43;;;;;;;2.50;1.30;;;;;;;23.16;86.78;100841.13;5036082;28;20207;-75
2022/07/13 06:39:09;;;;;;;2.37;1.20;;;;;;;23.25;85.73;100838.91;5021305;28;20587;-76
2022/07/13 06:41:34;;;;;;;1.87;1.13;;;;;;;23.35;84.83;100835.75;5032007;28;20188;-75
2022/07/13 06:44:00;;;;;;;1.87;1.10;;;;;;;23.47;84.38;100837.72;5036548;28;20209;-76
2022/07/13 06:46:25;;;;;;;1.20;1.00;;;;;;;23.63;84.06;100840.38;5042541;28;21060;-77
2022/07/13 06:48:51;;;;;;;1.30;1.10;;;;;;;23.77;82.96;100838.75;5034721;28;20244;-76
2022/07/13 06:51:16;;;;;;;1.17;1.00;;;;;;;23.90;82.76;100839.78;5017381;28;20776;-75
2022/07/13 06:53:41;;;;;;;1.60;1.03;;;;;;;24.04;82.01;100846.97;5022291;28;20180;-76
2022/07/13 06:56:07;;;;;;;2.50;1.20;;;;;;;24.20;81.46;100845.13;5012236;28;20196;-75
2022/07/13 06:58:32;;;;;;;1.10;0.90;;;;;;;24.41;81.22;100842.19;5013499;28;20237;-75
2022/07/13 07:00:58;;;;;;;1.87;1.20;;;;;;;24.67;80.55;100837.13;5005477;28;20198;-75
2022/07/13 07:03:24;;;;;;;1.10;1.00;;;;;;;24.95;80.12;100832.88;5014591;28;20195;-76
2022/07/13 07:05:51;;;;;;;2.10;0.93;;;;;;;25.26;79.41;100836.25;5024073;28;20281;-76
2022/07/13 07:08:17;;;;;;;1.00;0.80;;;;;;;25.58;78.42;100838.72;5026562;28;20202;-76
2022/07/13 07:10:43;;;;;;;1.27;1.17;;;;;;;25.85;77.51;100838.75;5032445;28;20187;-75
2022/07/13 07:13:09;;;;;;;1.47;1.03;;;;;;;26.12;76.48;100847.69;5032835;28;20188;-75
2022/07/13 07:15:34;;;;;;;1.60;1.10;;;;;;;26.35;75.69;100838.22;5034688;28;20206;-76
2022/07/13 07:18:00;;;;;;;1.80;1.27;;;;;;;26.69;74.71;100843.91;5034008;28;20623;-76
2022/07/13 07:20:25;;;;;;;1.00;0.90;;;;;;;27.83;72.40;100842.19;5021897;28;20175;-75
2022/07/13 07:22:51;;;;;;;2.30;1.20;;;;;;;29.31;68.19;100848.78;5039667;28;20214;-75
2022/07/13 07:25:16;;;;;;;2.30;1.40;;;;;;;30.19;65.49;100847.97;5031197;28;20195;-76
2022/07/13 07:27:43;;;;;;;1.83;1.10;;;;;;;30.50;64.66;100848.06;5034122;28;20287;-76
2022/07/13 07:30:09;;;;;;;2.80;1.10;;;;;;;30.67;63.98;100846.69;5034667;28;20180;-75
2022/07/13 07:32:34;;;;;;;1.30;0.97;;;;;;;30.63;64.14;100842.56;5042551;28;20270;-75
2022/07/13 07:35:00;;;;;;;4.10;1.10;;;;;;;30.43;64.71;100837.06;5016919;28;20215;-75
2022/07/13 07:37:25;;;;;;;1.00;0.90;;;;;;;30.18;64.72;100844.47;5014849;28;20217;-77
2022/07/13 07:39:51;;;;;;;1.70;1.27;;;;;;;29.85;64.86;100837.44;5029168;28;20274;-75
2022/07/13 07:42:16;;;;;;;2.17;1.00;;;;;;;29.58;65.17;100839.53;5029973;28;20313;-74
2022/07/13 07:44:42;;;;;;;2.43;1.20;;;;;;;29.38;65.56;100833.16;5029734;28;20194;-75
2022/07/13 07:47:08;;;;;;;1.23;1.00;;;;;;;29.24;65.57;100828.06;5038391;28;20198;-75
2022/07/13 07:49:34;;;;;;;1.33;0.83;;;;;;;29.15;65.71;100835.78;5029336;28;20189;-75
2022/07/13 07:52:00;;;;;;;2.47;1.00;;;;;;;29.09;65.54;100838.97;5038595;28;20416;-75
2022/07/13 07:54:25;;;;;;;1.23;0.83;;;;;;;29.10;65.57;100829.13;5042706;28;20604;-77
2022/07/13 07:56:50;;;;;;;1.63;0.90;;;;;;;29.23;65.34;100831.69;5008536;28;20209;-75
2022/07/13 07:59:16;;;;;;;1.10;1.00;;;;;;;29.60;64.96;100823.41;5021990;28;20317;-75
2022/07/13 08:01:42;;;;;;;1.40;1.20;;;;;;;30.02;64.10;100828.03;5026291;28;20262;-75
2022/07/13 08:04:07;;;;;;;1.97;0.90;;;;;;;30.29;63.15;100830.22;5029728;28;20221;-76
2022/07/13 08:06:33;;;;;;;1.83;1.10;;;;;;;30.35;63.16;100832.38;5017252;28;20191;-75
2022/07/13 08:08:59;;;;;;;1.43;1.00;;;;;;;30.48;62.96;100832.19;5028630;28;20225;-76
2022/07/13 08:11:25;;;;;;;1.93;1.27;;;;;;;30.33;62.83;100831.66;5034510;28;20730;-77
2022/07/13 08:13:51;;;;;;;1.93;1.10;;;;;;;30.26;62.73;100831.31;5030030;28;20194;-76
2022/07/13 08:16:17;;;;;;;1.50;1.13;;;;;;;30.37;62.98;100834.94;5024603;28;20837;-75
2022/07/13 08:18:43;;;;;;;0.80;0.80;;;;;;;30.42;62.10;100825.53;5013481;28;20260;-75
2022/07/13 08:21:09;;;;;;;1.93;0.80;;;;;;;30.35;59.98;100824.34;5031037;28;20249;-77
2022/07/13 08:23:54;;;;;;;1.30;1.00;;;;;;;30.11;60.74;100833.47;5033917;28;20723;-75
2022/07/13 08:26:26;;;;;;;2.17;1.03;;;;;;;30.03;61.05;100835.91;5028894;28;20191;-75
2022/07/13 08:28:52;;;;;;;1.00;0.90;;;;;;;30.10;61.87;100830.94;5035628;28;20189;-76
2022/07/13 08:31:22;;;;;;;0.97;0.80;;;;;;;30.14;62.68;100823.50;5029765;28;20274;-77
2022/07/13 08:39:17;;;;;;;1.20;0.90;;;;;;;29.80;63.13;100819.09;5028581;28;20701;-75
2022/07/13 08:41:43;;;;;;;1.13;0.80;;;;;;;29.62;62.84;100811.66;5017236;28;20208;-74
2022/07/13 08:44:08;;;;;;;0.93;0.77;;;;;;;29.39;62.55;100815.34;5014047;28;20180;-76
2022/07/13 08:46:34;;;;;;;1.10;0.97;;;;;;;29.14;62.39;100817.28;5040293;28;20244;-77
2022/07/13 08:49:00;;;;;;;0.80;0.80;;;;;;;28.96;62.71;100807.09;5039823;28;20211;-75
2022/07/13 08:51:26;;;;;;;1.10;0.80;;;;;;;28.75;62.42;100810.47;5010606;28;20289;-75
2022/07/13 08:53:56;;;;;;;0.93;0.83;;;;;;;28.49;62.46;100814.28;5016472;28;20702;-75
2022/07/13 08:56:22;;;;;;;0.90;0.90;;;;;;;28.26;62.93;100808.91;5031154;28;20289;-75
2022/07/13 08:58:47;;;;;;;0.97;0.97;;;;;;;28.07;62.80;100804.94;5027790;28;20275;-76
2022/07/13 09:01:14;;;;;;;0.80;0.80;;;;;;;27.98;63.67;100808.28;5015313;28;20666;-77
2022/07/13 09:07:33;;;;;;;0.80;0.73;;;;;;;27.80;64.39;100802.50;5030025;28;20238;-75
2022/07/13 09:09:59;;;;;;;3.10;1.30;;;;;;;27.73;63.93;100810.09;5034262;28;20190;-75
2022/07/13 09:12:26;;;;;;;1.47;1.00;;;;;;;27.69;63.90;100806.81;5040848;28;20768;-75
2022/07/13 09:14:56;;;;;;;1.53;0.97;;;;;;;27.77;62.62;100805.38;5033492;28;20187;-75
2022/07/13 09:17:35;;;;;;;1.13;1.00;;;;;;;27.67;63.12;100811.38;5010402;28;20558;-76
2022/07/13 09:20:17;;;;;;;1.20;1.00;;;;;;;27.61;63.12;100806.50;5023411;28;20662;-75
2022/07/13 09:22:48;;;;;;;2.20;1.07;;;;;;;27.57;62.93;100805.06;5034874;28;20556;-75
2022/07/13 09:25:43;;;;;;;1.90;0.90;;;;;;;27.60;63.68;100809.28;5022367;28;20195;-76
2022/07/13 09:28:16;;;;;;;1.17;0.90;;;;;;;27.73;64.54;100810.09;5021864;28;20238;-75
2022/07/13 09:30:43;;;;;;;1.63;1.10;;;;;;;27.88;63.64;100810.78;5038769;28;20677;-75
2022/07/13 09:33:09;;;;;;;1.87;0.93;;;;;;;28.02;63.69;100799.09;5037759;28;20191;-75
2022/07/13 09:35:44;;;;;;;3.17;1.03;;;;;;;28.25;63.04;100805.38;5009170;28;20242;-76
2022/07/13 09:38:30;;;;;;;1.10;0.87;;;;;;;28.36;62.15;100807.22;5038612;28;20717;-75
2022/07/13 09:40:56;;;;;;;2.40;1.20;;;;;;;28.48;61.92;100797.47;5004664;28;20196;-75
2022/07/13 09:46:10;;;;;;;1.03;0.93;;;;;;;29.11;62.51;100796.19;5022439;28;20744;-75
2022/07/13 09:48:37;;;;;;;1.17;0.77;;;;;;;29.39;61.60;100802.00;5033598;28;20183;-75
2022/07/13 09:51:03;;;;;;;1.00;1.00;;;;;;;29.53;61.11;100806.22;5028261;28;20186;-75
2022/07/13 09:53:30;;;;;;;1.27;0.90;;;;;;;29.69;61.08;100801.34;5034483;28;20191;-76
2022/07/13 09:55:57;;;;;;;0.80;0.70;;;;;;;29.79;61.03;100802.25;5009117;28;20197;-76
2022/07/13 09:58:28;;;;;;;0.97;0.80;;;;;;;29.88;61.00;100805.13;5031235;28;20182;-76
2022/07/13 10:00:56;;;;;;;1.47;0.80;;;;;;;29.94;60.07;100799.31;5031481;28;20273;-75
2022/07/13 10:03:23;;;;;;;1.67;1.00;;;;;;;29.92;59.91;100806.59;5032485;28;20198;-75
2022/07/13 10:05:50;;;;;;;1.17;0.80;;;;;;;29.91;59.31;100803.06;5018908;28;20215;-75
2022/07/13 10:08:16;;;;;;;1.83;0.80;;;;;;;29.81;58.24;100803.00;5017436;28;20210;-75
2022/07/13 10:10:43;;;;;;;0.80;0.80;;;;;;;29.76;57.83;100802.50;5014708;28;20189;-75
2022/07/13 10:13:09;;;;;;;1.13;0.70;;;;;;;29.77;58.06;100798.88;5029327;28;20207;-76
2022/07/13 10:15:34;;;;;;;1.13;0.70;;;;;;;29.79;57.01;100804.94;5027239;28;20211;-74
2022/07/13 10:18:01;;;;;;;0.70;0.63;;;;;;;29.88;56.87;100799.78;5030368;28;20230;-76
2022/07/13 10:20:29;;;;;;;1.27;0.73;;;;;;;29.92;56.25;100793.25;5017565;28;20190;-75
2022/07/13 10:22:54;;;;;;;1.30;0.70;;;;;;;29.99;56.02;100796.28;5033318;28;20191;-75
2022/07/13 10:25:23;;;;;;;1.37;0.73;;;;;;;29.94;55.90;100786.81;5026557;28;20207;-77
2022/07/13 10:28:05;;;;;;;4.73;0.63;;;;;;;29.93;56.43;100784.25;5033861;28;20227;-76
2022/07/13 10:30:30;;;;;;;1.90;0.80;;;;;;;29.96;56.05;100787.53;5020327;28;20257;-77
2022/07/13 10:33:24;;;;;;;0.97;0.70;;;;;;;29.92;55.63;100786.09;5005057;28;20607;-75
2022/07/13 10:35:54;;;;;;;0.80;0.67;;;;;;;29.80;53.93;100785.28;5023930;28;20183;-76
2022/07/13 10:38:27;;;;;;;0.80;0.60;;;;;;;29.69;54.72;100785.34;5018236;28;20303;-77
2022/07/13 10:41:21;;;;;;;0.53;0.53;;;;;;;29.65;55.37;100787.38;5037831;28;20681;-76
2022/07/13 10:43:54;;;;;;;0.90;0.63;;;;;;;29.66;55.06;100785.59;5022534;28;20191;-76
2022/07/13 10:46:45;;;;;;;0.50;0.50;;;;;;;29.68;55.23;100780.97;5019405;28;20297;-75
2022/07/13 10:49:32;;;;;;;1.40;0.80;;;;;;;29.78;55.83;100779.22;5025563;28;20187;-77
2022/07/13 10:52:29;;;;;;;0.70;0.70;;;;;;;29.87;54.95;100784.78;5026090;28;20572;-76
2022/07/13 10:57:29;;;;;;;1.90;0.80;;;;;;;29.96;55.96;100778.72;5027963;28;20342;-76
2022/07/13 11:02:51;;;;;;;0.60;0.60;;;;;;;30.03;56.49;100761.19;5031242;28;20196;-76
2022/07/13 11:05:25;;;;;;;0.97;0.97;;;;;;;29.99;56.62;100750.91;5012698;28;20629;-76
2022/07/13 11:07:52;;;;;;;1.00;0.90;;;;;;;30.02;57.07;100743.50;5029186;28;20210;-75
2022/07/13 11:10:18;;;;;;;1.10;0.73;;;;;;;30.09;57.31;100743.84;5030210;28;20195;-76
2022/07/13 11:12:57;;;;;;;0.90;0.80;;;;;;;30.21;57.21;100740.13;5011814;28;20192;-75
2022/07/13 11:15:23;;;;;;;0.70;0.67;;;;;;;30.24;57.03;100741.69;5023383;28;20211;-78
2022/07/13 11:17:54;;;;;;;0.60;0.60;;;;;;;30.35;57.34;100735.41;5012269;28;20230;-79
2022/07/13 11:20:20;;;;;;;0.50;0.50;;;;;;;30.41;56.86;100737.53;5019893;28;20274;-76
2022/07/13 11:25:48;;;;;;;1.50;0.50;;;;;;;30.39;57.27;100728.84;5045624;28;20210;-76
2022/07/13 11:28:33;;;;;;;0.60;0.60;;;;;;;30.52;56.69;100725.94;5020377;28;20790;-76
2022/07/13 11:31:03;;;;;;;2.35;0.70;;;;;;;30.65;56.31;100717.75;5029388;28;20186;-75
2022/07/13 11:33:28;;;;;;;0.80;0.80;;;;;;;30.77;56.48;100715.81;5030188;28;20206;-77
2022/07/13 11:35:55;;;;;;;0.70;0.70;;;;;;;30.89;55.76;100721.88;5030173;28;20655;-76
2022/07/13 11:38:21;;;;;;;0.80;0.70;;;;;;;30.91;55.28;100718.13;5014651;28;20299;-76
2022/07/13 11:40:47;;;;;;;1.15;0.70;;;;;;;31.00;55.13;100711.13;5030431;28;20282;-76